KDEN/DEN METAR and TAF weather

Enter ICAO airport designator
Station Type Date Time Source
KDEN METAR 2020/07/10 13:53 UTC NOAA

KDEN 101353Z 17007KT 10SM CLR 22/16 A3020 RMK AO2 SLP141 T02170161


Station Type Date Time Source
KDEN Decoded METAR 2020/07/10 13:53 UTC NOAA

DENVER INTERNATIONAL AIRPORT, CO, United States (KDEN) 39-52N 104-40W 1640M
Jul 10, 2020 - 09:53 AM EDT / 2020.07.10 1353 UTC
Wind: from the S (170 degrees) at 8 MPH (7 KT):0
Visibility: 10 mile(s):0
Sky conditions: clear
Temperature: 71.1 F (21.7 C)
Dew Point: 61.0 F (16.1 C)
Relative Humidity: 70%
Pressure (altimeter): 30.2 in. Hg (1022 hPa)
ob: KDEN 101353Z 17007KT 10SM CLR 22/16 A3020 RMK AO2 SLP141 T02170161
cycle: 14

Station Type Date Time Source
KDEN TAF 2020/07/10 12:22 UTC NOAA

TAF KDEN 101120Z 1012/1118 17010KT P6SM FEW200
FM101500 28006KT P6SM FEW250
FM101900 01008KT P6SM FEW100 FEW200
FM102100 35012G21KT P6SM FEW220
FM110500 26006KT P6SM FEW220
FM110900 36012KT P6SM FEW080 FEW220
FM111500 06006KT P6SM FEW060 SCT220

Example: see airport list